Time;durP1;ratioP1;P1;durP2;ratioP2;P2;SDS_P1;SDS_P2;PMS_P1;PMS_P2;Temp;Humidity;BMP_temperature;BMP_pressure;BME280_temperature;BME280_humidity;BME280_pressure;Samples;Min_cycle;Max_cycle;Signal;HPM_P1;HPM_P2
2022/11/04 00:00:55;;;;;;;7.43;3.27;;;11.70;99.90;;;;;;5012574;28;20244;-58
2022/11/04 00:03:23;;;;;;;7.83;3.70;;;11.70;99.90;;;;;;5012690;28;20772;-58
2022/11/04 00:05:51;;;;;;;7.73;3.30;;;11.70;99.90;;;;;;5012891;28;20640;-58
2022/11/04 00:08:25;;;;;;;6.17;3.37;;;11.80;99.90;;;;;;5012803;28;20714;-57
2022/11/04 00:13:41;;;;;;;3.87;2.93;;;11.80;99.90;;;;;;5004553;28;20627;-58
2022/11/04 00:18:55;;;;;;;6.13;3.37;;;11.80;99.90;;;;;;5004250;28;20282;-58
2022/11/04 00:29:43;;;;;;;4.77;2.73;;;11.80;99.90;;;;;;5027733;28;20318;-58
2022/11/04 00:34:57;;;;;;;6.90;3.53;;;11.70;99.90;;;;;;5012289;28;20305;-58
2022/11/04 00:37:26;;;;;;;6.53;3.30;;;11.70;99.90;;;;;;5012446;28;20707;-58
2022/11/04 00:39:54;;;;;;;5.93;3.50;;;11.70;99.90;;;;;;5012535;28;20224;-57
2022/11/04 00:42:22;;;;;;;5.30;3.33;;;11.70;99.90;;;;;;5014235;28;20278;-58
2022/11/04 00:44:52;;;;;;;5.80;3.60;;;11.60;99.90;;;;;;5007235;28;20299;-58
2022/11/04 00:47:20;;;;;;;5.23;3.20;;;11.60;99.90;;;;;;5015760;28;20231;-59
2022/11/04 00:49:48;;;;;;;4.33;3.17;;;11.70;99.90;;;;;;5007508;28;20229;-58
2022/11/04 00:52:16;;;;;;;6.30;3.73;;;11.60;99.90;;;;;;5016039;28;20229;-58
2022/11/04 00:54:44;;;;;;;5.37;3.57;;;11.60;99.90;;;;;;5015476;28;20239;-58
2022/11/04 00:57:12;;;;;;;7.83;3.63;;;11.60;99.90;;;;;;5015539;28;20229;-58
2022/11/04 00:59:41;;;;;;;5.73;3.87;;;11.60;99.90;;;;;;5015540;28;20231;-58
2022/11/04 01:02:11;;;;;;;4.70;3.53;;;11.60;99.90;;;;;;5015208;28;20235;-59
2022/11/04 01:04:39;;;;;;;5.20;3.50;;;11.60;99.90;;;;;;5015215;28;20697;-59
2022/11/04 01:07:07;;;;;;;4.83;3.47;;;11.60;99.90;;;;;;5014045;28;20596;-58
2022/11/04 01:09:35;;;;;;;7.33;4.00;;;11.60;99.90;;;;;;5015540;28;20230;-58
2022/11/04 01:12:04;;;;;;;8.27;4.00;;;11.60;99.90;;;;;;5015367;28;20231;-58
2022/11/04 01:14:32;;;;;;;4.57;3.70;;;11.50;99.90;;;;;;5006952;28;20645;-57
2022/11/04 01:17:00;;;;;;;5.00;3.83;;;11.50;99.90;;;;;;4999811;28;20257;-58
2022/11/04 01:19:30;;;;;;;5.73;4.27;;;11.50;99.90;;;;;;5006796;28;20223;-58
2022/11/04 01:21:58;;;;;;;6.33;4.03;;;11.50;99.90;;;;;;5015126;28;20628;-58
2022/11/04 01:24:26;;;;;;;7.37;4.30;;;11.50;99.90;;;;;;5014921;28;20215;-58
2022/11/04 01:26:54;;;;;;;4.70;4.20;;;11.50;99.90;;;;;;5015204;28;20235;-59
2022/11/04 01:29:22;;;;;;;6.17;3.93;;;11.50;99.90;;;;;;5022482;28;20569;-57
2022/11/04 01:31:50;;;;;;;8.27;4.30;;;11.50;99.90;;;;;;5006706;28;20237;-59
2022/11/04 01:34:18;;;;;;;7.57;4.80;;;11.40;99.90;;;;;;5034810;28;20243;-59
2022/11/04 01:36:47;;;;;;;6.77;4.57;;;11.50;99.90;;;;;;5034699;28;20234;-59
2022/11/04 01:39:15;;;;;;;7.70;4.27;;;11.40;99.90;;;;;;5034619;28;20226;-58
2022/11/04 01:41:44;;;;;;;5.07;4.40;;;11.40;99.90;;;;;;5023102;28;20572;-58
2022/11/04 01:44:47;;;;;;;6.50;4.90;;;11.40;99.90;;;;;;5007719;28;20589;-58
2022/11/04 01:47:18;;;;;;;7.93;5.13;;;11.40;99.90;;;;;;4999972;28;20610;-59
2022/11/04 01:49:50;;;;;;;5.33;4.83;;;11.40;99.90;;;;;;5006118;28;20235;-58
2022/11/04 01:52:26;;;;;;;7.77;4.70;;;11.40;99.90;;;;;;5014294;28;20226;-58
2022/11/04 01:54:57;;;;;;;7.47;5.00;;;11.40;99.90;;;;;;5013768;28;20250;-58
2022/11/04 01:57:31;;;;;;;8.07;5.20;;;11.40;99.90;;;;;;5014334;28;20223;-59
2022/11/04 02:00:03;;;;;;;7.00;5.00;;;11.40;99.90;;;;;;5014761;28;20235;-58
2022/11/04 02:02:45;;;;;;;6.73;5.00;;;11.40;99.90;;;;;;5013991;28;20238;-58
2022/11/04 02:05:14;;;;;;;6.13;5.23;;;11.40;99.90;;;;;;5014502;28;20232;-58
2022/11/04 02:07:43;;;;;;;7.90;4.77;;;11.40;99.90;;;;;;5014434;28;20227;-58
2022/11/04 02:10:12;;;;;;;5.50;4.73;;;11.40;99.90;;;;;;5013519;28;20224;-58
2022/11/04 02:12:48;;;;;;;7.50;4.83;;;11.40;99.90;;;;;;5010751;28;20240;-58
2022/11/04 02:15:22;;;;;;;7.57;4.90;;;11.40;99.90;;;;;;5013923;28;20234;-58
2022/11/04 02:18:08;;;;;;;6.53;4.93;;;11.40;99.90;;;;;;5003856;28;20226;-58
2022/11/04 02:21:07;;;;;;;7.13;5.17;;;11.40;99.90;;;;;;4998544;28;20283;-58
2022/11/04 02:23:56;;;;;;;7.87;5.03;;;11.40;99.90;;;;;;4990913;28;20232;-58
2022/11/04 02:27:03;;;;;;;6.53;5.07;;;11.40;99.90;;;;;;4994509;28;20231;-57
2022/11/04 02:29:56;;;;;;;8.37;5.60;;;11.40;99.90;;;;;;4993936;28;20231;-58
2022/11/04 02:32:33;;;;;;;6.50;5.83;;;11.40;99.90;;;;;;5011731;28;20232;-58
2022/11/04 02:35:05;;;;;;;6.33;5.20;;;11.40;99.90;;;;;;5033441;28;20243;-58
2022/11/04 02:37:40;;;;;;;6.77;5.23;;;11.40;99.90;;;;;;5033630;28;20231;-58
2022/11/04 02:40:19;;;;;;;9.97;5.47;;;11.50;99.90;;;;;;5033383;28;20233;-58
2022/11/04 02:42:54;;;;;;;6.67;5.30;;;11.50;99.90;;;;;;5009660;28;20226;-59
2022/11/04 02:45:33;;;;;;;7.93;5.20;;;11.40;99.90;;;;;;5005326;28;20224;-58
2022/11/04 02:48:05;;;;;;;6.23;5.27;;;11.40;99.90;;;;;;5013268;28;20232;-58
2022/11/04 02:50:39;;;;;;;10.30;5.63;;;11.50;99.90;;;;;;4998715;28;20234;-58
2022/11/04 02:53:14;;;;;;;9.17;5.47;;;11.40;99.90;;;;;;4993866;28;20235;-58
2022/11/04 02:55:46;;;;;;;7.53;5.90;;;11.50;99.90;;;;;;4993890;28;20242;-57
2022/11/04 02:58:18;;;;;;;7.30;5.60;;;11.50;99.90;;;;;;4993999;28;20232;-58
2022/11/04 03:00:50;;;;;;;8.50;6.50;;;11.50;99.90;;;;;;4993419;28;20286;-58
2022/11/04 03:03:24;;;;;;;6.60;5.50;;;11.50;99.90;;;;;;5008522;28;20293;-58
2022/11/04 03:05:54;;;;;;;7.00;5.50;;;11.50;99.90;;;;;;5012916;28;20237;-57
2022/11/04 03:08:29;;;;;;;7.17;5.93;;;11.50;99.90;;;;;;5013184;28;20278;-58
2022/11/04 03:11:02;;;;;;;7.60;5.70;;;11.50;99.90;;;;;;5013402;28;20231;-58
2022/11/04 03:13:36;;;;;;;8.67;5.67;;;11.50;99.90;;;;;;5003399;28;20233;-58
2022/11/04 03:16:10;;;;;;;7.43;5.70;;;11.50;99.90;;;;;;5001667;28;20635;-57
2022/11/04 03:18:44;;;;;;;7.73;6.13;;;11.50;99.90;;;;;;5009113;28;20238;-58
2022/11/04 03:21:14;;;;;;;7.60;5.97;;;11.50;99.90;;;;;;4993751;28;20235;-58
2022/11/04 03:23:43;;;;;;;7.60;5.90;;;11.60;99.90;;;;;;4993573;28;20738;-58
2022/11/04 03:26:18;;;;;;;6.47;5.43;;;11.60;99.90;;;;;;4993631;28;20231;-58
2022/11/04 03:28:57;;;;;;;9.03;5.80;;;11.60;99.90;;;;;;4993211;28;20240;-58
2022/11/04 03:31:35;;;;;;;6.40;5.63;;;11.60;99.90;;;;;;4993128;28;20292;-57
2022/11/04 03:34:03;;;;;;;10.40;6.37;;;11.60;99.90;;;;;;5023318;28;20223;-58
2022/11/04 03:36:31;;;;;;;7.93;6.37;;;11.70;99.90;;;;;;5013515;28;20230;-58
2022/11/04 03:38:59;;;;;;;9.60;6.70;;;11.70;99.90;;;;;;5031940;28;20245;-58
2022/11/04 03:41:34;;;;;;;7.47;5.70;;;11.70;99.90;;;;;;5023389;28;20285;-58
2022/11/04 03:44:02;;;;;;;9.77;6.57;;;11.70;99.90;;;;;;5001047;28;20239;-58
2022/11/04 03:46:31;;;;;;;8.07;6.43;;;11.70;99.90;;;;;;4998504;28;20557;-58
2022/11/04 03:49:00;;;;;;;6.70;6.00;;;11.70;99.90;;;;;;5003620;28;20231;-58
2022/11/04 03:51:28;;;;;;;7.57;5.90;;;11.70;99.90;;;;;;5012925;28;20232;-58
2022/11/04 03:53:57;;;;;;;6.47;5.80;;;11.80;99.90;;;;;;5012993;28;20237;-58
2022/11/04 03:56:59;;;;;;;5.87;5.07;;;11.80;99.90;;;;;;5012973;28;20593;-59
2022/11/04 03:59:46;;;;;;;7.97;5.40;;;11.80;99.90;;;;;;5012773;28;20705;-58
2022/11/04 04:02:20;;;;;;;6.03;5.00;;;11.70;99.90;;;;;;5012571;28;20655;-58
2022/11/04 04:04:55;;;;;;;6.60;5.20;;;11.80;99.90;;;;;;5012530;28;20599;-58
2022/11/04 04:07:30;;;;;;;5.77;4.77;;;11.80;99.90;;;;;;5012928;28;20782;-58
2022/11/04 04:10:37;;;;;;;5.17;4.67;;;11.80;99.90;;;;;;5012603;28;20310;-58
2022/11/04 04:12:58;;;;;;;5.07;4.57;;;11.80;99.90;;;;;;5004153;28;20314;-58
2022/11/04 04:15:30;;;;;;;5.53;4.00;;;11.80;99.90;;;;;;5010660;28;20243;-57
2022/11/04 04:18:03;;;;;;;4.10;3.70;;;11.80;99.90;;;;;;5023381;28;20277;-58
2022/11/04 04:20:35;;;;;;;4.37;3.30;;;11.80;99.90;;;;;;5013837;28;20628;-58
2022/11/04 04:27:29;;;;;;;3.37;2.73;;;11.70;99.90;;;;;;5016488;28;20681;-58
2022/11/04 04:28:46;;;;;;;2.27;2.10;;;11.70;99.90;;;;;;5016371;28;20273;-58
2022/11/04 04:31:48;;;;;;;2.80;2.50;;;11.70;99.90;;;;;;5015691;28;20293;-58
2022/11/04 04:34:07;;;;;;;3.67;2.23;;;11.70;99.90;;;;;;5016056;28;20228;-57
2022/11/04 04:36:42;;;;;;;3.00;2.13;;;11.70;99.90;;;;;;5016013;28;20234;-58
2022/11/04 04:44:59;;;;;;;2.30;2.10;;;11.70;99.90;;;;;;5007235;28;20298;-58
2022/11/04 04:47:34;;;;;;;3.07;2.10;;;11.70;99.90;;;;;;5001951;28;20315;-57
2022/11/04 04:50:04;;;;;;;2.20;2.00;;;11.70;99.90;;;;;;5019357;28;20655;-58
2022/11/04 04:52:35;;;;;;;2.30;2.10;;;11.60;99.90;;;;;;5035267;28;20236;-58
2022/11/04 04:55:03;;;;;;;1.97;1.77;;;11.70;99.90;;;;;;5035450;28;20226;-58
2022/11/04 04:57:31;;;;;;;2.63;2.20;;;11.60;99.90;;;;;;5035198;28;20222;-58
2022/11/04 04:59:59;;;;;;;2.63;2.10;;;11.70;99.90;;;;;;5035257;28;20281;-58
2022/11/04 05:02:27;;;;;;;2.60;2.13;;;11.60;99.90;;;;;;5034711;28;20241;-58
2022/11/04 05:04:56;;;;;;;6.77;3.77;;;11.60;99.90;;;;;;5035194;28;20231;-58
2022/11/04 05:07:25;;;;;;;2.63;2.43;;;11.60;99.90;;;;;;5035166;28;20229;-58
2022/11/04 05:09:53;;;;;;;2.67;2.47;;;11.60;99.90;;;;;;5035501;28;20241;-57
2022/11/04 05:12:21;;;;;;;2.87;2.60;;;11.60;99.90;;;;;;5033639;28;20233;-58
2022/11/04 05:14:49;;;;;;;2.80;2.40;;;11.60;99.90;;;;;;5013598;28;20288;-57
2022/11/04 05:17:17;;;;;;;4.60;3.20;;;11.60;99.90;;;;;;5002776;28;20232;-58
2022/11/04 05:19:45;;;;;;;2.90;2.70;;;11.50;99.90;;;;;;5011718;28;20238;-58
2022/11/04 05:22:13;;;;;;;3.47;2.80;;;11.60;99.90;;;;;;5035125;28;20713;-58
2022/11/04 05:24:43;;;;;;;2.80;2.50;;;11.60;99.90;;;;;;5035016;28;20584;-58
2022/11/04 05:27:11;;;;;;;3.00;2.77;;;11.60;99.90;;;;;;5034580;28;20226;-58
2022/11/04 05:29:39;;;;;;;3.17;2.87;;;11.60;99.90;;;;;;5031602;28;20713;-58
2022/11/04 05:32:07;;;;;;;4.37;3.27;;;11.60;99.90;;;;;;5028954;28;20244;-58
2022/11/04 05:34:35;;;;;;;3.80;3.30;;;11.60;99.90;;;;;;5010884;28;20650;-58
2022/11/04 05:37:03;;;;;;;4.00;3.60;;;11.60;99.90;;;;;;5014689;28;20243;-58
2022/11/04 05:39:31;;;;;;;4.00;3.70;;;11.60;99.90;;;;;;5020717;28;20281;-58
2022/11/04 05:42:01;;;;;;;4.17;3.77;;;11.60;99.90;;;;;;5014984;28;20242;-58
2022/11/04 05:44:29;;;;;;;6.50;3.97;;;11.60;99.90;;;;;;5014146;28;20243;-58
2022/11/04 05:46:57;;;;;;;4.37;4.00;;;11.60;99.90;;;;;;5005254;28;20227;-58
2022/11/04 05:49:25;;;;;;;4.63;4.23;;;11.60;99.90;;;;;;5003109;28;20236;-58
2022/11/04 05:51:53;;;;;;;4.30;3.90;;;11.50;99.90;;;;;;4994969;28;20232;-58
2022/11/04 05:54:21;;;;;;;4.23;3.83;;;11.50;99.90;;;;;;4994823;28;20240;-58
2022/11/04 05:56:49;;;;;;;4.87;4.30;;;11.40;99.90;;;;;;4993990;28;20236;-58
2022/11/04 05:59:19;;;;;;;5.07;4.37;;;11.50;99.90;;;;;;4995286;28;20252;-57
2022/11/04 06:01:48;;;;;;;4.23;3.93;;;11.50;99.90;;;;;;5006679;28;20242;-58
2022/11/04 06:04:19;;;;;;;4.97;4.50;;;11.40;99.90;;;;;;5008968;28;20227;-58
2022/11/04 06:06:47;;;;;;;5.43;4.40;;;11.40;99.90;;;;;;5014392;28;20238;-57
2022/11/04 06:09:15;;;;;;;5.10;4.63;;;11.40;99.90;;;;;;5014220;28;20231;-58
2022/11/04 06:11:44;;;;;;;6.77;5.43;;;11.40;99.90;;;;;;5013963;28;20226;-57
2022/11/04 06:14:12;;;;;;;5.57;5.07;;;11.30;99.90;;;;;;5014032;28;20239;-58
2022/11/04 06:16:47;;;;;;;5.00;4.50;;;11.30;99.90;;;;;;5015323;28;20238;-57
2022/11/04 06:19:15;;;;;;;4.87;4.47;;;11.30;99.90;;;;;;5002618;28;20235;-58
2022/11/04 06:21:43;;;;;;;5.50;5.00;;;11.30;99.90;;;;;;4994213;28;20242;-58
2022/11/04 06:24:11;;;;;;;5.23;4.73;;;11.30;99.90;;;;;;4994658;28;20231;-58
2022/11/04 06:26:39;;;;;;;5.57;4.70;;;11.30;99.90;;;;;;4994142;28;20233;-58
2022/11/04 06:29:08;;;;;;;5.60;5.07;;;11.20;99.90;;;;;;5000759;28;20220;-58
2022/11/04 06:31:36;;;;;;;5.63;5.13;;;11.20;99.90;;;;;;5002453;28;20268;-58
2022/11/04 06:34:06;;;;;;;5.43;4.93;;;11.20;99.90;;;;;;5000767;28;20236;-57
2022/11/04 06:36:34;;;;;;;5.87;4.77;;;11.20;99.90;;;;;;5003244;28;20281;-58
2022/11/04 06:39:04;;;;;;;4.87;4.47;;;11.20;99.90;;;;;;5000921;28;20230;-58
2022/11/04 06:41:33;;;;;;;5.20;4.73;;;11.20;99.90;;;;;;5001150;28;20710;-58
2022/11/04 06:44:01;;;;;;;6.00;4.90;;;11.10;99.90;;;;;;5002571;28;20263;-57
2022/11/04 06:46:34;;;;;;;5.80;4.97;;;11.10;99.90;;;;;;5001588;28;20266;-57
2022/11/04 06:49:02;;;;;;;6.43;4.67;;;11.10;99.90;;;;;;5000137;28;20241;-58
2022/11/04 06:51:32;;;;;;;5.27;4.77;;;11.10;99.90;;;;;;5001517;28;20240;-58
2022/11/04 06:54:00;;;;;;;5.83;5.10;;;11.10;99.90;;;;;;5001757;28;20248;-57
2022/11/04 06:56:28;;;;;;;5.77;4.30;;;11.00;99.90;;;;;;5001697;28;20713;-57
2022/11/04 06:58:56;;;;;;;5.67;5.17;;;11.00;99.90;;;;;;5002243;28;20265;-59
2022/11/04 07:01:27;;;;;;;6.60;6.00;;;11.00;99.90;;;;;;5003719;28;20273;-56
2022/11/04 07:03:57;;;;;;;6.93;6.33;;;11.00;99.90;;;;;;5005171;28;20576;-58
2022/11/04 07:06:27;;;;;;;6.50;5.57;;;11.00;99.90;;;;;;5004650;28;20223;-58
2022/11/04 07:08:58;;;;;;;6.40;5.40;;;11.00;99.90;;;;;;5002015;28;20231;-58
2022/11/04 07:11:29;;;;;;;7.23;6.20;;;11.00;99.90;;;;;;5001731;28;20232;-57
2022/11/04 07:13:57;;;;;;;6.80;6.20;;;11.00;99.90;;;;;;5001445;28;20289;-57
2022/11/04 07:16:25;;;;;;;7.07;6.43;;;11.00;99.90;;;;;;5002535;28;20234;-57
2022/11/04 07:18:54;;;;;;;7.47;6.70;;;11.00;99.90;;;;;;4999266;28;20266;-58
2022/11/04 07:21:23;;;;;;;6.93;6.33;;;10.90;99.90;;;;;;5002219;28;20644;-58
2022/11/04 07:23:51;;;;;;;6.70;6.20;;;11.00;99.90;;;;;;5002266;28;20297;-58
2022/11/04 07:26:20;;;;;;;6.70;6.07;;;11.00;99.90;;;;;;5002140;28;20234;-58
2022/11/04 07:28:48;;;;;;;6.57;5.93;;;11.00;99.90;;;;;;5000777;28;20808;-58
2022/11/04 07:31:17;;;;;;;7.33;6.40;;;11.00;99.90;;;;;;5001643;28;20240;-57
2022/11/04 07:33:48;;;;;;;6.17;5.57;;;11.00;99.90;;;;;;5002108;28;20230;-57
2022/11/04 07:36:17;;;;;;;6.73;6.03;;;11.00;99.90;;;;;;5002374;28;20325;-58
2022/11/04 07:38:46;;;;;;;6.53;5.93;;;11.00;99.90;;;;;;5002241;28;20237;-57
2022/11/04 07:41:14;;;;;;;6.17;5.57;;;11.00;99.90;;;;;;5004218;28;20238;-57
2022/11/04 07:43:47;;;;;;;6.40;5.77;;;11.00;99.90;;;;;;5004678;28;20677;-57
2022/11/04 07:46:16;;;;;;;6.20;5.60;;;11.00;99.90;;;;;;5003996;28;20235;-57
2022/11/04 07:48:44;;;;;;;6.17;5.67;;;11.00;99.90;;;;;;5002662;28;20241;-57
2022/11/04 07:51:15;;;;;;;6.27;5.67;;;11.00;99.90;;;;;;5006069;28;20760;-57
2022/11/04 07:53:43;;;;;;;5.90;5.40;;;11.00;99.90;;;;;;5008965;28;20230;-57
2022/11/04 07:56:13;;;;;;;5.90;5.40;;;11.00;99.90;;;;;;5008230;28;20233;-56
2022/11/04 07:58:43;;;;;;;5.97;5.40;;;11.00;99.90;;;;;;5006199;28;20289;-57
2022/11/04 08:01:13;;;;;;;5.77;5.27;;;11.00;99.90;;;;;;5007106;28;20269;-57
2022/11/04 08:03:42;;;;;;;4.93;4.33;;;11.10;99.90;;;;;;5008034;28;20245;-57
2022/11/04 08:06:12;;;;;;;4.17;3.83;;;11.00;99.90;;;;;;5007712;28;20860;-57
2022/11/04 08:08:42;;;;;;;3.80;3.50;;;11.10;99.90;;;;;;5006265;28;20240;-58
2022/11/04 08:11:13;;;;;;;3.33;3.03;;;11.10;99.90;;;;;;5007793;28;20575;-57
2022/11/04 08:13:46;;;;;;;3.73;3.30;;;11.20;99.90;;;;;;5008025;28;20312;-55
2022/11/04 08:16:16;;;;;;;3.57;3.00;;;11.20;99.90;;;;;;5008143;28;20231;-58
2022/11/04 08:18:45;;;;;;;2.63;2.30;;;11.20;99.90;;;;;;5005965;28;20246;-56
2022/11/04 08:21:13;;;;;;;2.80;2.33;;;11.30;99.90;;;;;;5007092;28;20219;-58
2022/11/04 08:23:42;;;;;;;2.90;2.10;;;11.30;99.90;;;;;;5008587;28;20235;-57
2022/11/04 08:26:12;;;;;;;2.30;2.10;;;11.30;99.90;;;;;;5005757;28;20238;-57
2022/11/04 08:28:40;;;;;;;2.37;2.10;;;11.30;99.90;;;;;;5006192;28;20255;-57
2022/11/04 08:31:13;;;;;;;3.07;2.10;;;11.40;99.90;;;;;;5006120;28;20594;-58
2022/11/04 08:33:42;;;;;;;1.93;1.83;;;11.40;99.90;;;;;;5007428;28;20234;-57
2022/11/04 08:36:13;;;;;;;3.10;1.73;;;11.40;99.90;;;;;;5006915;28;20281;-58
2022/11/04 08:38:42;;;;;;;2.43;2.23;;;11.50;99.90;;;;;;5005980;28;21117;-57
2022/11/04 08:41:11;;;;;;;3.27;3.00;;;11.50;99.90;;;;;;5004705;28;20289;-57
2022/11/04 08:43:39;;;;;;;2.97;2.63;;;11.50;99.90;;;;;;5004351;28;20230;-57
2022/11/04 08:46:10;;;;;;;3.53;3.23;;;11.40;99.90;;;;;;5006012;28;20721;-57
2022/11/04 08:48:39;;;;;;;3.50;3.20;;;11.50;99.90;;;;;;4986513;28;20690;-58
2022/11/04 08:51:12;;;;;;;3.27;2.97;;;11.50;99.90;;;;;;5005519;28;20793;-58
2022/11/04 08:53:41;;;;;;;3.50;3.20;;;11.50;99.90;;;;;;5006534;28;20242;-57
2022/11/04 08:56:14;;;;;;;3.50;3.27;;;11.50;99.90;;;;;;5007508;28;20234;-57
2022/11/04 08:58:42;;;;;;;3.83;3.53;;;11.60;99.90;;;;;;5005907;28;20235;-58
2022/11/04 09:01:11;;;;;;;3.80;3.23;;;11.60;99.90;;;;;;5007480;28;20241;-57
2022/11/04 09:03:41;;;;;;;3.60;3.30;;;11.60;99.90;;;;;;5006565;28;20238;-57
2022/11/04 09:06:11;;;;;;;2.97;2.50;;;11.60;99.90;;;;;;5007725;28;20222;-58
2022/11/04 09:08:39;;;;;;;3.50;3.10;;;11.70;99.90;;;;;;5006496;28;20223;-57
2022/11/04 09:11:08;;;;;;;3.17;2.80;;;11.70;99.90;;;;;;5008022;28;20603;-57
2022/11/04 09:13:37;;;;;;;3.37;2.63;;;11.80;99.90;;;;;;5006586;28;20237;-58
2022/11/04 09:16:08;;;;;;;2.17;1.97;;;12.00;99.90;;;;;;5007734;28;20231;-58
2022/11/04 09:18:38;;;;;;;2.50;1.80;;;12.20;99.90;;;;;;5004985;28;20243;-58
2022/11/04 09:21:08;;;;;;;1.87;1.70;;;12.20;99.90;;;;;;5006686;28;20226;-58
2022/11/04 09:23:36;;;;;;;1.83;1.40;;;12.40;99.90;;;;;;5006244;28;20278;-58
2022/11/04 09:26:07;;;;;;;1.30;1.20;;;12.50;99.90;;;;;;5007309;28;20238;-58
2022/11/04 09:28:35;;;;;;;1.30;1.17;;;12.80;99.90;;;;;;5005044;28;20235;-57
2022/11/04 09:31:07;;;;;;;2.50;1.40;;;13.00;99.90;;;;;;5007245;28;20248;-58
2022/11/04 09:33:35;;;;;;;2.83;1.10;;;13.10;99.90;;;;;;5005427;28;20279;-57
2022/11/04 09:36:07;;;;;;;3.23;1.17;;;13.10;99.90;;;;;;5007497;28;20886;-58
2022/11/04 09:38:36;;;;;;;1.33;1.10;;;13.30;99.90;;;;;;5005426;28;20246;-56
2022/11/04 09:41:11;;;;;;;1.87;1.07;;;13.40;99.90;;;;;;5007668;28;20592;-57
2022/11/04 09:43:51;;;;;;;1.87;0.90;;;13.60;99.90;;;;;;5006368;28;20250;-57
2022/11/04 09:46:21;;;;;;;1.63;1.10;;;13.70;99.90;;;;;;5005983;28;20242;-58
2022/11/04 09:48:53;;;;;;;1.63;1.10;;;13.60;99.90;;;;;;5004578;28;20231;-57
2022/11/04 09:51:26;;;;;;;1.63;0.80;;;13.40;99.90;;;;;;5006424;28;20236;-58
2022/11/04 09:54:20;;;;;;;1.27;0.93;;;13.40;99.90;;;;;;5006657;28;20282;-57
2022/11/04 09:56:50;;;;;;;2.27;0.80;;;13.60;99.90;;;;;;5005412;28;20766;-56
2022/11/04 09:59:24;;;;;;;0.83;0.63;;;13.90;99.90;;;;;;5004745;28;20239;-57
2022/11/04 10:02:03;;;;;;;2.47;0.97;;;14.10;99.90;;;;;;5004928;28;20239;-58
2022/11/04 10:04:48;;;;;;;0.70;0.70;;;14.30;99.90;;;;;;5005358;28;20232;-57
2022/11/04 10:07:32;;;;;;;1.03;0.63;;;14.50;99.90;;;;;;5006140;28;20279;-57
2022/11/04 10:10:10;;;;;;;1.10;0.60;;;14.20;99.90;;;;;;5004669;28;20248;-57
2022/11/04 10:12:53;;;;;;;1.13;0.60;;;14.30;99.90;;;;;;5005997;28;20269;-57
2022/11/04 10:15:56;;;;;;;1.40;0.50;;;14.30;99.90;;;;;;5004075;28;20227;-58
2022/11/04 10:18:37;;;;;;;0.70;0.50;;;14.00;99.90;;;;;;5004613;28;20236;-57
2022/11/04 10:21:12;;;;;;;1.30;0.60;;;13.90;99.90;;;;;;5005759;28;20246;-57
2022/11/04 10:23:45;;;;;;;1.63;0.67;;;13.90;99.90;;;;;;5004877;28;20239;-58
2022/11/04 10:26:17;;;;;;;1.87;0.60;;;13.90;99.90;;;;;;5005702;28;20237;-58
2022/11/04 10:28:50;;;;;;;1.83;0.80;;;13.80;99.90;;;;;;5003439;28;20240;-58
2022/11/04 10:31:18;;;;;;;2.13;0.80;;;14.00;99.90;;;;;;5005079;28;20240;-58
2022/11/04 10:33:50;;;;;;;0.80;0.53;;;14.30;99.90;;;;;;5005634;28;20707;-56
2022/11/04 10:36:20;;;;;;;0.80;0.60;;;14.70;99.90;;;;;;5005841;28;20229;-57
2022/11/04 10:38:53;;;;;;;1.13;0.60;;;14.90;99.90;;;;;;5005255;28;20241;-56
2022/11/04 10:41:27;;;;;;;0.57;0.50;;;15.10;99.90;;;;;;5005772;28;20244;-57
2022/11/04 10:44:02;;;;;;;1.53;0.80;;;15.20;99.90;;;;;;5005365;28;20666;-58
2022/11/04 10:46:40;;;;;;;1.27;0.70;;;15.20;99.90;;;;;;5003706;28;20251;-57
2022/11/04 10:49:29;;;;;;;1.43;0.67;;;15.10;99.90;;;;;;5004423;28;20235;-58
2022/11/04 10:51:57;;;;;;;2.60;1.10;;;14.80;99.90;;;;;;5004243;28;20240;-58
2022/11/04 10:54:29;;;;;;;1.80;0.60;;;14.80;99.90;;;;;;5003232;28;20233;-56
2022/11/04 10:56:57;;;;;;;1.40;0.60;;;14.90;99.90;;;;;;5000996;28;20229;-57
2022/11/04 10:59:29;;;;;;;2.03;0.90;;;15.10;99.90;;;;;;5001470;28;20241;-57
2022/11/04 11:01:58;;;;;;;0.87;0.53;;;15.30;99.90;;;;;;4999924;28;20716;-57
2022/11/04 11:04:30;;;;;;;1.23;0.50;;;15.40;99.90;;;;;;5002257;28;20236;-57
2022/11/04 11:07:00;;;;;;;1.70;0.70;;;15.50;99.90;;;;;;5003811;28;20229;-58
2022/11/04 11:09:32;;;;;;;3.90;0.90;;;15.80;99.90;;;;;;5003786;28;20225;-58
2022/11/04 11:12:02;;;;;;;2.17;0.60;;;15.90;99.90;;;;;;5003302;28;20240;-57
2022/11/04 11:14:42;;;;;;;2.00;0.70;;;16.00;99.90;;;;;;5004203;28;20868;-58
2022/11/04 11:17:19;;;;;;;2.17;0.60;;;15.80;99.90;;;;;;5002791;28;20279;-58
2022/11/04 11:19:56;;;;;;;2.27;0.67;;;15.90;99.90;;;;;;5003563;28;20244;-57
2022/11/04 11:22:35;;;;;;;3.53;0.87;;;15.80;99.90;;;;;;5004176;28;20236;-59
2022/11/04 11:25:21;;;;;;;1.57;0.77;;;15.70;99.90;;;;;;5003856;28;20228;-58
2022/11/04 11:27:51;;;;;;;2.53;0.77;;;15.40;99.90;;;;;;5002078;28;20233;-58
2022/11/04 11:30:31;;;;;;;2.60;0.70;;;15.20;99.90;;;;;;5002290;28;20225;-58
2022/11/04 11:33:02;;;;;;;1.67;0.83;;;15.10;99.90;;;;;;5003328;28;20592;-57
2022/11/04 11:35:40;;;;;;;2.40;0.77;;;15.00;99.90;;;;;;5002236;28;20241;-57
2022/11/04 11:38:20;;;;;;;1.53;0.70;;;15.00;99.90;;;;;;5001886;28;20233;-56
2022/11/04 11:40:53;;;;;;;2.67;0.90;;;14.90;99.90;;;;;;5003237;28;20229;-58
2022/11/04 11:43:45;;;;;;;3.97;0.90;;;14.70;99.90;;;;;;5003306;28;20686;-58
2022/11/04 11:46:13;;;;;;;5.47;1.00;;;14.50;99.90;;;;;;5003552;28;20233;-57
2022/11/04 11:48:43;;;;;;;3.40;0.80;;;14.40;99.90;;;;;;5002471;28;20234;-57
2022/11/04 11:51:13;;;;;;;2.50;0.90;;;14.20;99.90;;;;;;5003714;28;20635;-57
2022/11/04 11:54:02;;;;;;;4.93;0.80;;;14.10;99.90;;;;;;5004541;28;20600;-57
2022/11/04 11:56:42;;;;;;;2.60;1.10;;;14.00;99.90;;;;;;5002626;28;20254;-57
2022/11/04 11:59:38;;;;;;;1.90;0.80;;;13.90;99.90;;;;;;4999459;28;20395;-59
2022/11/04 12:02:33;;;;;;;4.27;1.03;;;13.90;99.90;;;;;;5000072;28;20264;-56
2022/11/04 12:05:02;;;;;;;2.93;0.70;;;13.90;99.90;;;;;;5000830;28;20259;-58
2022/11/04 12:07:57;;;;;;;1.47;0.70;;;14.00;99.90;;;;;;4998511;28;20657;-58
2022/11/04 12:10:55;;;;;;;2.73;0.70;;;14.00;99.90;;;;;;5000465;28;20294;-58
2022/11/04 12:13:28;;;;;;;2.27;0.80;;;14.00;99.90;;;;;;5001096;28;20240;-58
2022/11/04 12:16:17;;;;;;;5.03;0.90;;;14.10;99.90;;;;;;4999531;28;20236;-56
2022/11/04 12:19:12;;;;;;;3.97;1.07;;;14.20;99.90;;;;;;4998360;28;20237;-58
2022/11/04 12:21:46;;;;;;;4.47;0.97;;;14.40;99.90;;;;;;4999622;28;20647;-58
2022/11/04 12:24:27;;;;;;;6.67;1.13;;;14.40;99.90;;;;;;5000835;28;20243;-58
2022/11/04 12:27:05;;;;;;;5.23;0.97;;;14.50;99.90;;;;;;5000369;28;20246;-57
2022/11/04 12:29:48;;;;;;;4.30;1.00;;;14.50;99.90;;;;;;4999264;28;20720;-57
2022/11/04 12:32:27;;;;;;;3.57;1.20;;;14.60;99.90;;;;;;5000649;28;21283;-57
2022/11/04 12:35:20;;;;;;;6.27;1.20;;;14.60;99.90;;;;;;5000861;28;20225;-56
2022/11/04 12:38:01;;;;;;;2.63;0.80;;;14.60;99.90;;;;;;5002172;28;20241;-57
2022/11/04 12:40:40;;;;;;;2.80;1.00;;;14.50;99.90;;;;;;5006537;28;20644;-56
2022/11/04 12:43:19;;;;;;;3.83;0.90;;;14.50;99.90;;;;;;5007416;28;20658;-57
2022/11/04 12:46:02;;;;;;;4.27;1.20;;;14.40;99.90;;;;;;5006893;28;20233;-57
2022/11/04 12:49:10;;;;;;;5.00;1.47;;;14.30;99.90;;;;;;5004609;28;20237;-55
2022/11/04 12:51:48;;;;;;;4.93;0.90;;;14.20;99.90;;;;;;5006319;28;20255;-56
2022/11/04 12:54:44;;;;;;;5.53;1.00;;;14.10;99.90;;;;;;5005416;28;20308;-57
2022/11/04 12:57:18;;;;;;;4.10;0.87;;;14.10;99.90;;;;;;4998318;28;20770;-57
2022/11/04 13:00:14;;;;;;;3.53;1.40;;;14.10;99.90;;;;;;5003389;28;20290;-58
2022/11/04 13:02:48;;;;;;;3.37;0.80;;;14.10;99.90;;;;;;5003615;28;20311;-58
2022/11/04 13:05:36;;;;;;;3.03;0.87;;;14.10;99.90;;;;;;5006243;28;20668;-56
2022/11/04 13:08:19;;;;;;;4.40;0.97;;;14.10;99.90;;;;;;5004869;28;20234;-58
2022/11/04 13:10:53;;;;;;;4.03;0.90;;;14.20;99.90;;;;;;5006127;28;20342;-57
2022/11/04 13:13:26;;;;;;;3.53;0.87;;;14.30;99.90;;;;;;5006917;28;20304;-57
2022/11/04 13:15:58;;;;;;;2.13;0.77;;;14.40;99.90;;;;;;5006917;28;20236;-55
2022/11/04 13:18:32;;;;;;;2.77;1.00;;;14.40;99.90;;;;;;5004505;28;20286;-58
2022/11/04 13:21:06;;;;;;;3.90;1.30;;;14.40;99.90;;;;;;5005985;28;20724;-57
2022/11/04 13:23:40;;;;;;;3.13;0.70;;;14.40;99.90;;;;;;5005476;28;20275;-58
2022/11/04 13:26:14;;;;;;;3.63;1.13;;;14.30;99.90;;;;;;5006190;28;20232;-57
2022/11/04 13:28:43;;;;;;;3.03;1.03;;;14.40;99.90;;;;;;5003824;28;20651;-57
2022/11/04 13:31:19;;;;;;;2.93;0.90;;;14.40;99.90;;;;;;5005110;28;21032;-57
2022/11/04 13:33:55;;;;;;;3.60;1.47;;;14.40;99.90;;;;;;5003791;28;20263;-57
2022/11/04 13:36:30;;;;;;;5.43;1.20;;;14.50;99.90;;;;;;4999911;28;20581;-57
2022/11/04 13:39:02;;;;;;;5.47;1.40;;;14.40;99.90;;;;;;5001770;28;20231;-58
2022/11/04 13:41:54;;;;;;;1.80;0.63;;;14.30;99.90;;;;;;5002407;28;20253;-57
2022/11/04 13:44:26;;;;;;;2.17;0.70;;;14.20;99.90;;;;;;4977132;28;20745;-57